Portada
METAR-TAF:

METAR-TAF

Aeropuertos :

Aeropuerto Internacional de Tan Son Nhat

Ciudad Ho Chi Minh, Vietnam

latitud: 10-49N, longitud: 106-40E, altitud: 19 m

Observación

El informe se hizo hace 19 minutos, a las 06:00 UTC
Viento 4 kt del oeste-noroeste, variando entre sur-suroeste y norte
Temperatura 34°C
Humedad 36%
Presión 1009 hPa
Visibilidad 10 km o más
Escasas nubes a una altura de 2000 ft

METAR: VVTS 190600Z 29004KT 210V360 9999 FEW020 34/17 Q1009 NOSIG

Hora: 13:19 (06:19 UTC)

Pronóstico

El informe se hizo hace 1 hora y 19 minutos, a las 05:00 UTC
Pronóstico válido del 19 a las 06 UTC al 20 a las 12 UTC
Viento 8 kt del este-noreste
Visibilidad 10 km o más
Nubes dispersas a una altura de 1700 ft

TAF: VVTS 190500Z 1906/2012 06008KT 9999 SCT017

Observaciones y pronósticos meteorológicos de más de 4000 aeropuertos (mensajes METAR y TAF).

Los puntos amarillos y rojos representan las estaciones disponibles.

Ponga el ratón en el punto deseado para ver el nombre de la estación.

Haga clic para ver las observaciones y los pronósticos meteorológicos.

Para cambiar el mapa : haga clic en los botones verdes con una cruz de color negro para hacer un zoom, en el botón verde con un guión para alejar o en las flechas verdes para mapas adyacentes.


METAR-TAF: